sensor_id;sensor_type;location;lat;lon;timestamp;pressure;altitude;pressure_sealevel;temperature;humidity
5996;BME280;3026;53.612;7.278;2023-05-25T00:00:26;102555.78;;;10.23;100.00
5996;BME280;3026;53.612;7.278;2023-05-25T00:02:53;102550.56;;;10.20;100.00
5996;BME280;3026;53.612;7.278;2023-05-25T00:05:20;102541.63;;;10.18;100.00
5996;BME280;3026;53.612;7.278;2023-05-25T00:07:52;102553.19;;;10.21;100.00
5996;BME280;3026;53.612;7.278;2023-05-25T00:10:19;102563.22;;;10.21;100.00
5996;BME280;3026;53.612;7.278;2023-05-25T00:12:46;102564.97;;;10.22;100.00
5996;BME280;3026;53.612;7.278;2023-05-25T00:15:13;102564.19;;;10.20;100.00
5996;BME280;3026;53.612;7.278;2023-05-25T00:17:41;102568.66;;;10.21;100.00
5996;BME280;3026;53.612;7.278;2023-05-25T00:20:09;102566.94;;;10.20;100.00
5996;BME280;3026;53.612;7.278;2023-05-25T00:22:38;102566.94;;;10.20;100.00
5996;BME280;3026;53.612;7.278;2023-05-25T00:25:09;102570.41;;;10.22;100.00
5996;BME280;3026;53.612;7.278;2023-05-25T00:27:36;102559.50;;;10.22;100.00
5996;BME280;3026;53.612;7.278;2023-05-25T00:30:03;102567.56;;;10.23;100.00
5996;BME280;3026;53.612;7.278;2023-05-25T00:32:31;102567.56;;;10.23;100.00
5996;BME280;3026;53.612;7.278;2023-05-25T00:34:59;102561.25;;;10.23;100.00
5996;BME280;3026;53.612;7.278;2023-05-25T00:37:26;102564.69;;;10.25;100.00
5996;BME280;3026;53.612;7.278;2023-05-25T00:39:52;102564.69;;;10.25;100.00
5996;BME280;3026;53.612;7.278;2023-05-25T00:42:19;102561.97;;;10.25;100.00
5996;BME280;3026;53.612;7.278;2023-05-25T00:44:46;102562.09;;;10.23;100.00
5996;BME280;3026;53.612;7.278;2023-05-25T00:47:14;102562.09;;;10.23;100.00
5996;BME280;3026;53.612;7.278;2023-05-25T00:49:41;102561.47;;;10.20;100.00
5996;BME280;3026;53.612;7.278;2023-05-25T00:52:11;102552.78;;;10.15;100.00
5996;BME280;3026;53.612;7.278;2023-05-25T00:54:38;102562.97;;;10.13;100.00
5996;BME280;3026;53.612;7.278;2023-05-25T00:57:06;102560.50;;;10.10;100.00
5996;BME280;3026;53.612;7.278;2023-05-25T00:59:36;102562.50;;;10.08;100.00
5996;BME280;3026;53.612;7.278;2023-05-25T01:02:07;102559.00;;;10.06;100.00
5996;BME280;3026;53.612;7.278;2023-05-25T01:04:44;102556.81;;;10.00;100.00
5996;BME280;3026;53.612;7.278;2023-05-25T01:07:16;102553.34;;;9.98;100.00
5996;BME280;3026;53.612;7.278;2023-05-25T01:09:44;102552.84;;;9.92;100.00
5996;BME280;3026;53.612;7.278;2023-05-25T01:12:14;102563.75;;;9.92;100.00
5996;BME280;3026;53.612;7.278;2023-05-25T01:14:41;102562.28;;;9.88;100.00
5996;BME280;3026;53.612;7.278;2023-05-25T01:17:09;102560.53;;;9.87;100.00
5996;BME280;3026;53.612;7.278;2023-05-25T01:19:36;102558.81;;;9.86;100.00
5996;BME280;3026;53.612;7.278;2023-05-25T01:22:11;102554.38;;;9.85;100.00
5996;BME280;3026;53.612;7.278;2023-05-25T01:24:43;102555.09;;;9.87;100.00
5996;BME280;3026;53.612;7.278;2023-05-25T01:27:14;102562.53;;;9.85;100.00
5996;BME280;3026;53.612;7.278;2023-05-25T01:29:44;102563.28;;;9.87;100.00
5996;BME280;3026;53.612;7.278;2023-05-25T01:32:12;102566.00;;;9.87;100.00
5996;BME280;3026;53.612;7.278;2023-05-25T01:34:40;102568.72;;;9.87;100.00
5996;BME280;3026;53.612;7.278;2023-05-25T01:37:10;102561.53;;;9.86;100.00
5996;BME280;3026;53.612;7.278;2023-05-25T01:39:38;102557.09;;;9.85;100.00
5996;BME280;3026;53.612;7.278;2023-05-25T01:42:05;102567.22;;;9.83;100.00
5996;BME280;3026;53.612;7.278;2023-05-25T01:44:32;102569.94;;;9.83;100.00
5996;BME280;3026;53.612;7.278;2023-05-25T01:47:03;102576.38;;;9.82;100.00
5996;BME280;3026;53.612;7.278;2023-05-25T01:49:37;102573.94;;;9.79;100.00
5996;BME280;3026;53.612;7.278;2023-05-25T01:52:16;102582.34;;;9.76;100.00
5996;BME280;3026;53.612;7.278;2023-05-25T01:54:46;102575.53;;;9.71;100.00
5996;BME280;3026;53.612;7.278;2023-05-25T01:57:14;102581.84;;;9.71;100.00
5996;BME280;3026;53.612;7.278;2023-05-25T01:59:44;102591.28;;;9.67;100.00
5996;BME280;3026;53.612;7.278;2023-05-25T02:02:13;102579.63;;;9.65;100.00
5996;BME280;3026;53.612;7.278;2023-05-25T02:04:40;102578.78;;;9.64;100.00
5996;BME280;3026;53.612;7.278;2023-05-25T02:07:07;102583.34;;;9.64;100.00
5996;BME280;3026;53.612;7.278;2023-05-25T02:09:36;102573.47;;;9.63;100.00
5996;BME280;3026;53.612;7.278;2023-05-25T02:12:04;102573.69;;;9.60;100.00
5996;BME280;3026;53.612;7.278;2023-05-25T02:14:31;102573.59;;;9.61;100.00
5996;BME280;3026;53.612;7.278;2023-05-25T02:16:58;102575.44;;;9.61;100.00
5996;BME280;3026;53.612;7.278;2023-05-25T02:19:26;102574.53;;;9.60;100.00
5996;BME280;3026;53.612;7.278;2023-05-25T02:21:53;102582.63;;;9.62;100.00
5996;BME280;3026;53.612;7.278;2023-05-25T02:24:21;102576.31;;;9.61;100.00
5996;BME280;3026;53.612;7.278;2023-05-25T02:26:50;102568.22;;;9.60;100.00
5996;BME280;3026;53.612;7.278;2023-05-25T02:29:17;102573.19;;;9.66;100.00
5996;BME280;3026;53.612;7.278;2023-05-25T02:31:44;102575.91;;;9.66;100.00
5996;BME280;3026;53.612;7.278;2023-05-25T02:34:11;102580.38;;;9.67;100.00
5996;BME280;3026;53.612;7.278;2023-05-25T02:36:39;102588.53;;;9.67;100.00
5996;BME280;3026;53.612;7.278;2023-05-25T02:39:08;102585.09;;;9.65;100.00
5996;BME280;3026;53.612;7.278;2023-05-25T02:41:35;102584.34;;;9.63;100.00
5996;BME280;3026;53.612;7.278;2023-05-25T02:44:04;102587.81;;;9.65;100.00
5996;BME280;3026;53.612;7.278;2023-05-25T02:46:30;102589.53;;;9.66;100.00
5996;BME280;3026;53.612;7.278;2023-05-25T02:48:58;102580.88;;;9.61;100.00
5996;BME280;3026;53.612;7.278;2023-05-25T02:51:25;102575.44;;;9.61;100.00
5996;BME280;3026;53.612;7.278;2023-05-25T02:53:52;102591.28;;;9.67;100.00
5996;BME280;3026;53.612;7.278;2023-05-25T02:56:19;102587.56;;;9.68;100.00
5996;BME280;3026;53.612;7.278;2023-05-25T02:58:47;102590.16;;;9.70;100.00
5996;BME280;3026;53.612;7.278;2023-05-25T03:01:15;102585.56;;;9.70;100.00
5996;BME280;3026;53.612;7.278;2023-05-25T03:03:43;102595.38;;;9.73;100.00
5996;BME280;3026;53.612;7.278;2023-05-25T03:06:11;102593.75;;;9.70;100.00
5996;BME280;3026;53.612;7.278;2023-05-25T03:08:38;102600.81;;;9.73;100.00
5996;BME280;3026;53.612;7.278;2023-05-25T03:11:05;102601.69;;;9.73;100.00
5996;BME280;3026;53.612;7.278;2023-05-25T03:13:32;102600.81;;;9.73;100.00
5996;BME280;3026;53.612;7.278;2023-05-25T03:15:59;102596.25;;;9.73;100.00
5996;BME280;3026;53.612;7.278;2023-05-25T03:18:27;102597.97;;;9.74;100.00
5996;BME280;3026;53.612;7.278;2023-05-25T03:20:54;102599.69;;;9.75;100.00
5996;BME280;3026;53.612;7.278;2023-05-25T03:23:21;102592.53;;;9.74;100.00
5996;BME280;3026;53.612;7.278;2023-05-25T03:25:48;102608.59;;;9.77;100.00
5996;BME280;3026;53.612;7.278;2023-05-25T03:28:15;102601.44;;;9.76;100.00
5996;BME280;3026;53.612;7.278;2023-05-25T03:30:42;102610.59;;;9.75;100.00
5996;BME280;3026;53.612;7.278;2023-05-25T03:33:09;102607.13;;;9.73;100.00
5996;BME280;3026;53.612;7.278;2023-05-25T03:35:39;102608.59;;;9.77;100.00
5996;BME280;3026;53.612;7.278;2023-05-25T03:38:06;102611.19;;;9.79;100.00
5996;BME280;3026;53.612;7.278;2023-05-25T03:40:33;102616.66;;;9.79;100.00
5996;BME280;3026;53.612;7.278;2023-05-25T03:42:59;102617.53;;;9.79;100.00
5996;BME280;3026;53.612;7.278;2023-05-25T03:45:26;102613.78;;;9.80;100.00
5996;BME280;3026;53.612;7.278;2023-05-25T03:47:53;102618.38;;;9.80;100.00
5996;BME280;3026;53.612;7.278;2023-05-25T03:50:20;102609.34;;;9.79;100.00
5996;BME280;3026;53.612;7.278;2023-05-25T03:52:48;102615.31;;;9.84;100.00
5996;BME280;3026;53.612;7.278;2023-05-25T03:55:15;102609.84;;;9.84;100.00
5996;BME280;3026;53.612;7.278;2023-05-25T03:57:42;102613.53;;;9.83;100.00
5996;BME280;3026;53.612;7.278;2023-05-25T04:00:10;102625.94;;;9.87;100.00
5996;BME280;3026;53.612;7.278;2023-05-25T04:02:37;102620.50;;;9.87;100.00
5996;BME280;3026;53.612;7.278;2023-05-25T04:05:04;102619.63;;;9.87;100.00
5996;BME280;3026;53.612;7.278;2023-05-25T04:07:37;102642.91;;;9.91;100.00
5996;BME280;3026;53.612;7.278;2023-05-25T04:10:07;102639.06;;;9.93;100.00
5996;BME280;3026;53.612;7.278;2023-05-25T04:12:34;102638.81;;;9.97;100.00
5996;BME280;3026;53.612;7.278;2023-05-25T04:15:00;102644.88;;;10.00;100.00
5996;BME280;3026;53.612;7.278;2023-05-25T04:17:28;102642.50;;;10.07;100.00
5996;BME280;3026;53.612;7.278;2023-05-25T04:19:55;102647.47;;;10.13;100.00
5996;BME280;3026;53.612;7.278;2023-05-25T04:22:22;102641.53;;;10.19;100.00
5996;BME280;3026;53.612;7.278;2023-05-25T04:24:48;102648.47;;;10.34;100.00
5996;BME280;3026;53.612;7.278;2023-05-25T04:27:17;102652.41;;;10.41;100.00
5996;BME280;3026;53.612;7.278;2023-05-25T04:29:44;102642.13;;;10.45;100.00
5996;BME280;3026;53.612;7.278;2023-05-25T04:32:11;102647.91;;;10.51;100.00
5996;BME280;3026;53.612;7.278;2023-05-25T04:34:42;102647.41;;;10.58;100.00
5996;BME280;3026;53.612;7.278;2023-05-25T04:37:09;102654.81;;;10.67;100.00
5996;BME280;3026;53.612;7.278;2023-05-25T04:39:36;102657.88;;;10.73;100.00
5996;BME280;3026;53.612;7.278;2023-05-25T04:42:03;102657.25;;;10.81;100.00
5996;BME280;3026;53.612;7.278;2023-05-25T04:44:31;102643.59;;;10.81;100.00
5996;BME280;3026;53.612;7.278;2023-05-25T04:46:58;102653.75;;;10.90;100.00
5996;BME280;3026;53.612;7.278;2023-05-25T04:49:25;102646.28;;;10.92;100.00
5996;BME280;3026;53.612;7.278;2023-05-25T04:51:52;102661.41;;;10.96;100.00
5996;BME280;3026;53.612;7.278;2023-05-25T04:54:19;102667.34;;;11.01;100.00
5996;BME280;3026;53.612;7.278;2023-05-25T04:56:46;102664.22;;;11.06;100.00
5996;BME280;3026;53.612;7.278;2023-05-25T04:59:13;102658.34;;;11.10;100.00
5996;BME280;3026;53.612;7.278;2023-05-25T05:01:41;102664.00;;;11.19;100.00
5996;BME280;3026;53.612;7.278;2023-05-25T05:04:09;102665.38;;;11.24;100.00
5996;BME280;3026;53.612;7.278;2023-05-25T05:06:36;102662.38;;;11.27;100.00
5996;BME280;3026;53.612;7.278;2023-05-25T05:09:03;102664.50;;;11.24;100.00
5996;BME280;3026;53.612;7.278;2023-05-25T05:11:30;102670.41;;;11.29;100.00
5996;BME280;3026;53.612;7.278;2023-05-25T05:13:57;102677.34;;;11.33;100.00
5996;BME280;3026;53.612;7.278;2023-05-25T05:16:24;102677.09;;;11.36;100.00
5996;BME280;3026;53.612;7.278;2023-05-25T05:18:52;102682.16;;;11.40;100.00
5996;BME280;3026;53.612;7.278;2023-05-25T05:21:19;102670.81;;;11.45;100.00
5996;BME280;3026;53.612;7.278;2023-05-25T05:23:46;102668.56;;;11.50;100.00
5996;BME280;3026;53.612;7.278;2023-05-25T05:26:13;102677.69;;;11.60;100.00
5996;BME280;3026;53.612;7.278;2023-05-25T05:28:39;102671.53;;;11.68;100.00
5996;BME280;3026;53.612;7.278;2023-05-25T05:31:06;102675.59;;;11.74;100.00
5996;BME280;3026;53.612;7.278;2023-05-25T05:33:33;102679.06;;;11.76;100.00
5996;BME280;3026;53.612;7.278;2023-05-25T05:36:02;102684.50;;;11.76;100.00
5996;BME280;3026;53.612;7.278;2023-05-25T05:38:29;102682.78;;;11.75;100.00
5996;BME280;3026;53.612;7.278;2023-05-25T05:40:56;102686.53;;;11.74;100.00
5996;BME280;3026;53.612;7.278;2023-05-25T05:43:23;102690.25;;;11.73;100.00
5996;BME280;3026;53.612;7.278;2023-05-25T05:45:49;102698.91;;;11.78;100.00
5996;BME280;3026;53.612;7.278;2023-05-25T05:48:16;102693.19;;;11.81;100.00
5996;BME280;3026;53.612;7.278;2023-05-25T05:50:43;102700.13;;;11.85;100.00
5996;BME280;3026;53.612;7.278;2023-05-25T05:53:11;102704.31;;;11.89;100.00
5996;BME280;3026;53.612;7.278;2023-05-25T05:55:38;102697.59;;;11.93;100.00
5996;BME280;3026;53.612;7.278;2023-05-25T05:58:05;102711.72;;;11.98;100.00
5996;BME280;3026;53.612;7.278;2023-05-25T06:00:32;102707.44;;;12.05;100.00
5996;BME280;3026;53.612;7.278;2023-05-25T06:02:59;102697.09;;;12.09;100.00
5996;BME280;3026;53.612;7.278;2023-05-25T06:05:26;102708.31;;;12.15;100.00
5996;BME280;3026;53.612;7.278;2023-05-25T06:07:53;102710.66;;;12.20;100.00
5996;BME280;3026;53.612;7.278;2023-05-25T06:10:21;102705.50;;;12.26;100.00
5996;BME280;3026;53.612;7.278;2023-05-25T06:12:48;102712.16;;;12.34;100.00
5996;BME280;3026;53.612;7.278;2023-05-25T06:15:15;102711.88;;;12.37;100.00
5996;BME280;3026;53.612;7.278;2023-05-25T06:17:42;102724.44;;;12.49;100.00
5996;BME280;3026;53.612;7.278;2023-05-25T06:20:09;102728.63;;;12.53;100.00
5996;BME280;3026;53.612;7.278;2023-05-25T06:22:36;102736.28;;;12.59;100.00
5996;BME280;3026;53.612;7.278;2023-05-25T06:25:03;102734.16;;;12.63;100.00
5996;BME280;3026;53.612;7.278;2023-05-25T06:27:32;102742.22;;;12.64;100.00
5996;BME280;3026;53.612;7.278;2023-05-25T06:29:58;102743.94;;;12.65;100.00
5996;BME280;3026;53.612;7.278;2023-05-25T06:32:25;102745.38;;;12.69;100.00
5996;BME280;3026;53.612;7.278;2023-05-25T06:34:52;102742.34;;;12.72;100.00
5996;BME280;3026;53.612;7.278;2023-05-25T06:37:19;102744.69;;;12.77;100.00
5996;BME280;3026;53.612;7.278;2023-05-25T06:39:46;102762.69;;;12.79;100.00
5996;BME280;3026;53.612;7.278;2023-05-25T06:42:13;102750.75;;;12.80;100.00
5996;BME280;3026;53.612;7.278;2023-05-25T06:44:41;102752.63;;;12.90;100.00
5996;BME280;3026;53.612;7.278;2023-05-25T06:47:08;102755.25;;;13.01;100.00
5996;BME280;3026;53.612;7.278;2023-05-25T06:49:34;102776.75;;;13.15;100.00
5996;BME280;3026;53.612;7.278;2023-05-25T06:52:01;102766.50;;;13.17;100.00
5996;BME280;3026;53.612;7.278;2023-05-25T06:54:28;102763.66;;;13.19;100.00
5996;BME280;3026;53.612;7.278;2023-05-25T06:56:55;102770.72;;;13.21;100.00
5996;BME280;3026;53.612;7.278;2023-05-25T06:59:22;102768.00;;;13.21;100.00
5996;BME280;3026;53.612;7.278;2023-05-25T07:01:50;102769.72;;;13.22;100.00
5996;BME280;3026;53.612;7.278;2023-05-25T07:04:17;102777.22;;;13.20;100.00
5996;BME280;3026;53.612;7.278;2023-05-25T07:06:44;102784.44;;;13.21;100.00
5996;BME280;3026;53.612;7.278;2023-05-25T07:09:12;102787.31;;;13.29;100.00
5996;BME280;3026;53.612;7.278;2023-05-25T07:11:40;102786.19;;;13.32;100.00
5996;BME280;3026;53.612;7.278;2023-05-25T07:14:06;102779.53;;;13.44;100.00
5996;BME280;3026;53.612;7.278;2023-05-25T07:16:33;102783.84;;;13.47;100.00
5996;BME280;3026;53.612;7.278;2023-05-25T07:19:01;102786.44;;;13.58;100.00
5996;BME280;3026;53.612;7.278;2023-05-25T07:21:30;102791.19;;;13.75;100.00
5996;BME280;3026;53.612;7.278;2023-05-25T07:23:57;102794.91;;;13.93;100.00
5996;BME280;3026;53.612;7.278;2023-05-25T07:26:25;102797.91;;;14.10;100.00
5996;BME280;3026;53.612;7.278;2023-05-25T07:28:52;102802.50;;;14.19;100.00
5996;BME280;3026;53.612;7.278;2023-05-25T07:31:19;102812.63;;;14.18;100.00
5996;BME280;3026;53.612;7.278;2023-05-25T07:33:46;102817.81;;;14.12;100.00
5996;BME280;3026;53.612;7.278;2023-05-25T07:36:14;102822.59;;;14.00;100.00
5996;BME280;3026;53.612;7.278;2023-05-25T07:38:41;102832.47;;;13.93;100.00
5996;BME280;3026;53.612;7.278;2023-05-25T07:41:08;102815.25;;;14.00;100.00
5996;BME280;3026;53.612;7.278;2023-05-25T07:43:36;102824.16;;;14.22;100.00
5996;BME280;3026;53.612;7.278;2023-05-25T07:46:03;102821.84;;;14.27;100.00
5996;BME280;3026;53.612;7.278;2023-05-25T07:48:30;102822.97;;;14.34;100.00
5996;BME280;3026;53.612;7.278;2023-05-25T07:50:56;102827.56;;;14.43;100.00
5996;BME280;3026;53.612;7.278;2023-05-25T07:53:25;102828.28;;;14.55;100.00
5996;BME280;3026;53.612;7.278;2023-05-25T07:55:52;102831.69;;;14.67;100.00
5996;BME280;3026;53.612;7.278;2023-05-25T07:58:18;102839.19;;;14.74;100.00
5996;BME280;3026;53.612;7.278;2023-05-25T08:00:45;102828.88;;;14.86;100.00
5996;BME280;3026;53.612;7.278;2023-05-25T08:03:14;102838.28;;;14.83;100.00
5996;BME280;3026;53.612;7.278;2023-05-25T08:05:40;102838.63;;;14.71;100.00
5996;BME280;3026;53.612;7.278;2023-05-25T08:08:08;102838.47;;;14.72;100.00
5996;BME280;3026;53.612;7.278;2023-05-25T08:10:36;102838.72;;;14.79;100.00
5996;BME280;3026;53.612;7.278;2023-05-25T08:13:03;102842.59;;;14.86;100.00
5996;BME280;3026;53.612;7.278;2023-05-25T08:15:30;102848.78;;;14.88;100.00
5996;BME280;3026;53.612;7.278;2023-05-25T08:17:56;102843.25;;;14.98;100.00
5996;BME280;3026;53.612;7.278;2023-05-25T08:20:23;102844.72;;;15.20;100.00
5996;BME280;3026;53.612;7.278;2023-05-25T08:22:50;102851.84;;;15.12;100.00
5996;BME280;3026;53.612;7.278;2023-05-25T08:25:18;102860.78;;;15.14;100.00
5996;BME280;3026;53.612;7.278;2023-05-25T08:27:47;102857.09;;;15.06;100.00
5996;BME280;3026;53.612;7.278;2023-05-25T08:30:14;102863.03;;;15.01;100.00
5996;BME280;3026;53.612;7.278;2023-05-25T08:32:40;102874.13;;;14.82;100.00
5996;BME280;3026;53.612;7.278;2023-05-25T08:35:08;102868.09;;;14.69;100.00
5996;BME280;3026;53.612;7.278;2023-05-25T08:37:35;102874.59;;;14.68;100.00
5996;BME280;3026;53.612;7.278;2023-05-25T08:40:02;102870.84;;;14.69;100.00
5996;BME280;3026;53.612;7.278;2023-05-25T08:42:32;102871.47;;;14.63;100.00
5996;BME280;3026;53.612;7.278;2023-05-25T08:45:00;102868.28;;;14.57;100.00
5996;BME280;3026;53.612;7.278;2023-05-25T08:47:28;102872.03;;;14.56;100.00
5996;BME280;3026;53.612;7.278;2023-05-25T08:49:58;102866.84;;;14.53;100.00
5996;BME280;3026;53.612;7.278;2023-05-25T08:52:28;102881.31;;;14.55;100.00
5996;BME280;3026;53.612;7.278;2023-05-25T08:55:00;102883.34;;;14.53;100.00
5996;BME280;3026;53.612;7.278;2023-05-25T08:57:33;102882.75;;;14.59;100.00
5996;BME280;3026;53.612;7.278;2023-05-25T09:00:05;102878.06;;;14.70;100.00
5996;BME280;3026;53.612;7.278;2023-05-25T09:02:38;102886.22;;;14.89;100.00
5996;BME280;3026;53.612;7.278;2023-05-25T09:05:07;102886.94;;;14.91;100.00
5996;BME280;3026;53.612;7.278;2023-05-25T09:07:34;102889.81;;;14.99;100.00
5996;BME280;3026;53.612;7.278;2023-05-25T09:10:02;102895.31;;;14.99;100.00
5996;BME280;3026;53.612;7.278;2023-05-25T09:12:29;102892.75;;;14.88;100.00
5996;BME280;3026;53.612;7.278;2023-05-25T09:14:56;102890.75;;;14.80;100.00
5996;BME280;3026;53.612;7.278;2023-05-25T09:17:24;102890.19;;;14.77;100.00
5996;BME280;3026;53.612;7.278;2023-05-25T09:19:51;102893.38;;;14.82;100.00
5996;BME280;3026;53.612;7.278;2023-05-25T09:22:18;102900.75;;;15.09;100.00
5996;BME280;3026;53.612;7.278;2023-05-25T09:24:45;102895.22;;;15.18;100.00
5996;BME280;3026;53.612;7.278;2023-05-25T09:27:19;102896.63;;;15.23;100.00
5996;BME280;3026;53.612;7.278;2023-05-25T09:29:47;102895.22;;;15.18;100.00
5996;BME280;3026;53.612;7.278;2023-05-25T09:32:14;102888.44;;;15.13;100.00
5996;BME280;3026;53.612;7.278;2023-05-25T09:34:43;102897.84;;;15.10;100.00
5996;BME280;3026;53.612;7.278;2023-05-25T09:37:10;102900.38;;;15.22;100.00
5996;BME280;3026;53.612;7.278;2023-05-25T09:39:39;102897.75;;;15.30;100.00
5996;BME280;3026;53.612;7.278;2023-05-25T09:42:06;102893.34;;;15.37;100.00
5996;BME280;3026;53.612;7.278;2023-05-25T09:44:32;102895.72;;;15.32;100.00
5996;BME280;3026;53.612;7.278;2023-05-25T09:47:00;102904.13;;;15.30;100.00
5996;BME280;3026;53.612;7.278;2023-05-25T09:49:27;102909.22;;;15.43;100.00
5996;BME280;3026;53.612;7.278;2023-05-25T09:51:56;102909.47;;;15.50;100.00
5996;BME280;3026;53.612;7.278;2023-05-25T09:54:22;102907.09;;;15.64;100.00
5996;BME280;3026;53.612;7.278;2023-05-25T09:56:50;102912.06;;;15.79;100.00
5996;BME280;3026;53.612;7.278;2023-05-25T09:59:17;102913.69;;;15.71;100.00
5996;BME280;3026;53.612;7.278;2023-05-25T10:01:49;102913.63;;;15.81;100.00
5996;BME280;3026;53.612;7.278;2023-05-25T10:04:16;102921.66;;;15.74;100.00
5996;BME280;3026;53.612;7.278;2023-05-25T10:06:45;102916.66;;;15.60;100.00
5996;BME280;3026;53.612;7.278;2023-05-25T10:09:17;102913.50;;;15.55;100.00
5996;BME280;3026;53.612;7.278;2023-05-25T10:11:44;102923.66;;;15.72;100.00
5996;BME280;3026;53.612;7.278;2023-05-25T10:14:14;102920.44;;;15.95;100.00
5996;BME280;3026;53.612;7.278;2023-05-25T10:16:47;102925.47;;;16.17;100.00
5996;BME280;3026;53.612;7.278;2023-05-25T10:19:18;102935.25;;;16.12;100.00
5996;BME280;3026;53.612;7.278;2023-05-25T10:21:50;102920.41;;;16.30;100.00
5996;BME280;3026;53.612;7.278;2023-05-25T10:24:25;102929.84;;;16.46;100.00
5996;BME280;3026;53.612;7.278;2023-05-25T10:26:58;102939.13;;;16.45;100.00
5996;BME280;3026;53.612;7.278;2023-05-25T10:29:29;102924.34;;;16.46;100.00
5996;BME280;3026;53.612;7.278;2023-05-25T10:31:57;102931.78;;;16.53;100.00
5996;BME280;3026;53.612;7.278;2023-05-25T10:34:25;102923.84;;;16.68;100.00
5996;BME280;3026;53.612;7.278;2023-05-25T10:36:52;102931.50;;;16.82;100.00
5996;BME280;3026;53.612;7.278;2023-05-25T10:39:22;102937.00;;;16.82;100.00
5996;BME280;3026;53.612;7.278;2023-05-25T10:41:51;102934.84;;;16.68;100.00
5996;BME280;3026;53.612;7.278;2023-05-25T10:44:18;102941.06;;;16.52;100.00
5996;BME280;3026;53.612;7.278;2023-05-25T10:46:46;102944.66;;;16.45;100.00
5996;BME280;3026;53.612;7.278;2023-05-25T10:49:24;102933.16;;;16.31;100.00
5996;BME280;3026;53.612;7.278;2023-05-25T10:51:57;102928.13;;;16.27;100.00
5996;BME280;3026;53.612;7.278;2023-05-25T10:54:29;102936.47;;;16.17;100.00
5996;BME280;3026;53.612;7.278;2023-05-25T10:57:10;102932.91;;;16.43;100.00
5996;BME280;3026;53.612;7.278;2023-05-25T10:59:41;102936.84;;;16.66;100.00
5996;BME280;3026;53.612;7.278;2023-05-25T11:02:10;102937.19;;;16.63;100.00
5996;BME280;3026;53.612;7.278;2023-05-25T11:04:37;102927.47;;;16.51;100.00
5996;BME280;3026;53.612;7.278;2023-05-25T11:07:05;102946.03;;;16.49;100.00
5996;BME280;3026;53.612;7.278;2023-05-25T11:09:41;102941.28;;;16.33;100.00
5996;BME280;3026;53.612;7.278;2023-05-25T11:12:19;102933.47;;;16.28;100.00
5996;BME280;3026;53.612;7.278;2023-05-25T11:15:08;102931.75;;;16.27;100.00
5996;BME280;3026;53.612;7.278;2023-05-25T11:17:44;102935.28;;;16.20;100.00
5996;BME280;3026;53.612;7.278;2023-05-25T11:20:20;102929.50;;;16.23;100.00
5996;BME280;3026;53.612;7.278;2023-05-25T11:22:49;102931.13;;;16.33;100.00
5996;BME280;3026;53.612;7.278;2023-05-25T11:25:45;102932.41;;;16.21;100.00
5996;BME280;3026;53.612;7.278;2023-05-25T11:28:12;102926.25;;;16.27;100.00
5996;BME280;3026;53.612;7.278;2023-05-25T11:30:39;102925.63;;;16.33;100.00
5996;BME280;3026;53.612;7.278;2023-05-25T11:33:07;102931.75;;;16.27;100.00
5996;BME280;3026;53.612;7.278;2023-05-25T11:35:34;102925.56;;;16.25;100.00
5996;BME280;3026;53.612;7.278;2023-05-25T11:38:06;102929.00;;;16.27;100.00
5996;BME280;3026;53.612;7.278;2023-05-25T11:40:33;102925.41;;;16.53;100.00
5996;BME280;3026;53.612;7.278;2023-05-25T11:43:02;102926.38;;;16.44;100.00
5996;BME280;3026;53.612;7.278;2023-05-25T11:45:30;102932.47;;;16.29;100.00
5996;BME280;3026;53.612;7.278;2023-05-25T11:47:57;102934.84;;;16.24;100.00
5996;BME280;3026;53.612;7.278;2023-05-25T11:50:24;102926.25;;;16.27;100.00
5996;BME280;3026;53.612;7.278;2023-05-25T11:52:52;102929.50;;;16.23;100.00
5996;BME280;3026;53.612;7.278;2023-05-25T11:55:19;102925.81;;;16.14;100.00
5996;BME280;3026;53.612;7.278;2023-05-25T11:57:54;102928.94;;;16.19;100.00
5996;BME280;3026;53.612;7.278;2023-05-25T12:00:26;102924.00;;;16.23;100.00
5996;BME280;3026;53.612;7.278;2023-05-25T12:02:53;102930.03;;;16.26;100.00
5996;BME280;3026;53.612;7.278;2023-05-25T12:05:20;102924.84;;;16.23;100.00
5996;BME280;3026;53.612;7.278;2023-05-25T12:07:47;102924.84;;;16.23;100.00
5996;BME280;3026;53.612;7.278;2023-05-25T12:10:15;102932.41;;;16.21;100.00
5996;BME280;3026;53.612;7.278;2023-05-25T12:12:42;102927.03;;;16.20;100.00
5996;BME280;3026;53.612;7.278;2023-05-25T12:15:10;102939.22;;;16.17;100.00
5996;BME280;3026;53.612;7.278;2023-05-25T12:17:41;102945.78;;;16.16;100.00
5996;BME280;3026;53.612;7.278;2023-05-25T12:20:09;102936.47;;;16.17;100.00
5996;BME280;3026;53.612;7.278;2023-05-25T12:22:36;102934.13;;;16.22;100.00
5996;BME280;3026;53.612;7.278;2023-05-25T12:25:05;102929.69;;;16.29;100.00
5996;BME280;3026;53.612;7.278;2023-05-25T12:27:32;102940.19;;;16.52;100.00
5996;BME280;3026;53.612;7.278;2023-05-25T12:29:59;102934.06;;;16.58;100.00
5996;BME280;3026;53.612;7.278;2023-05-25T12:32:26;102936.41;;;16.53;100.00
5996;BME280;3026;53.612;7.278;2023-05-25T12:35:02;102926.38;;;16.44;100.00
5996;BME280;3026;53.612;7.278;2023-05-25T12:37:29;102928.75;;;16.39;100.00
5996;BME280;3026;53.612;7.278;2023-05-25T12:39:56;102924.88;;;16.49;100.00
5996;BME280;3026;53.612;7.278;2023-05-25T12:42:23;102931.34;;;16.66;100.00
5996;BME280;3026;53.612;7.278;2023-05-25T12:44:54;102925.84;;;16.66;100.00
5996;BME280;3026;53.612;7.278;2023-05-25T12:47:22;102931.31;;;16.58;100.00
5996;BME280;3026;53.612;7.278;2023-05-25T12:49:53;102931.75;;;16.45;100.00
5996;BME280;3026;53.612;7.278;2023-05-25T12:52:35;102932.03;;;16.42;100.00
5996;BME280;3026;53.612;7.278;2023-05-25T12:55:22;102928.41;;;16.42;100.00
5996;BME280;3026;53.612;7.278;2023-05-25T12:57:51;102925.81;;;16.40;100.00
5996;BME280;3026;53.612;7.278;2023-05-25T13:00:19;102931.44;;;16.30;100.00
5996;BME280;3026;53.612;7.278;2023-05-25T13:02:48;102919.00;;;16.26;100.00
5996;BME280;3026;53.612;7.278;2023-05-25T13:05:19;102913.69;;;16.25;100.00
5996;BME280;3026;53.612;7.278;2023-05-25T13:07:47;102912.47;;;16.27;100.00